sensor_id;sensor_type;location;lat;lon;timestamp;P1;durP1;ratioP1;P2;durP2;ratioP2
23565;SDS011;22140;48.988;8.544;2022-08-01T00:03:31;5.90;;;2.40;;
23565;SDS011;22140;48.988;8.544;2022-08-01T00:08:33;6.82;;;2.30;;
23565;SDS011;22140;48.988;8.544;2022-08-01T00:13:34;6.27;;;2.30;;
23565;SDS011;22140;48.988;8.544;2022-08-01T00:18:36;6.28;;;2.05;;
23565;SDS011;22140;48.988;8.544;2022-08-01T00:23:37;5.28;;;2.22;;
23565;SDS011;22140;48.988;8.544;2022-08-01T00:28:39;5.90;;;2.50;;
23565;SDS011;22140;48.988;8.544;2022-08-01T00:33:40;6.37;;;2.33;;
23565;SDS011;22140;48.988;8.544;2022-08-01T00:38:41;5.60;;;2.40;;
23565;SDS011;22140;48.988;8.544;2022-08-01T00:43:42;5.60;;;2.42;;
23565;SDS011;22140;48.988;8.544;2022-08-01T00:48:44;6.60;;;2.40;;
23565;SDS011;22140;48.988;8.544;2022-08-01T00:53:45;5.68;;;2.22;;
23565;SDS011;22140;48.988;8.544;2022-08-01T00:58:52;6.40;;;2.20;;
23565;SDS011;22140;48.988;8.544;2022-08-01T01:03:53;5.50;;;2.10;;
23565;SDS011;22140;48.988;8.544;2022-08-01T01:09:11;5.82;;;2.30;;
23565;SDS011;22140;48.988;8.544;2022-08-01T01:14:27;5.33;;;2.17;;
23565;SDS011;22140;48.988;8.544;2022-08-01T01:19:32;8.20;;;2.47;;
23565;SDS011;22140;48.988;8.544;2022-08-01T01:24:40;5.43;;;2.15;;
23565;SDS011;22140;48.988;8.544;2022-08-01T01:29:46;6.88;;;2.55;;
23565;SDS011;22140;48.988;8.544;2022-08-01T01:35:02;6.97;;;2.63;;
23565;SDS011;22140;48.988;8.544;2022-08-01T01:40:06;6.25;;;2.20;;
23565;SDS011;22140;48.988;8.544;2022-08-01T01:45:08;6.28;;;2.40;;
23565;SDS011;22140;48.988;8.544;2022-08-01T01:50:10;6.10;;;2.37;;
23565;SDS011;22140;48.988;8.544;2022-08-01T01:55:12;7.65;;;2.63;;
23565;SDS011;22140;48.988;8.544;2022-08-01T02:00:14;6.43;;;2.45;;
23565;SDS011;22140;48.988;8.544;2022-08-01T02:05:16;6.13;;;2.33;;
23565;SDS011;22140;48.988;8.544;2022-08-01T02:10:17;6.60;;;2.40;;
23565;SDS011;22140;48.988;8.544;2022-08-01T02:15:19;7.43;;;2.28;;
23565;SDS011;22140;48.988;8.544;2022-08-01T02:20:21;6.03;;;2.50;;
23565;SDS011;22140;48.988;8.544;2022-08-01T02:25:31;6.93;;;2.60;;
23565;SDS011;22140;48.988;8.544;2022-08-01T02:30:35;6.13;;;2.35;;
23565;SDS011;22140;48.988;8.544;2022-08-01T02:35:37;7.50;;;2.50;;
23565;SDS011;22140;48.988;8.544;2022-08-01T02:41:06;5.77;;;2.30;;
23565;SDS011;22140;48.988;8.544;2022-08-01T02:46:11;6.38;;;2.50;;
23565;SDS011;22140;48.988;8.544;2022-08-01T02:51:15;6.13;;;2.30;;
23565;SDS011;22140;48.988;8.544;2022-08-01T02:56:17;9.80;;;2.30;;
23565;SDS011;22140;48.988;8.544;2022-08-01T03:01:23;6.60;;;2.50;;
23565;SDS011;22140;48.988;8.544;2022-08-01T03:06:27;7.90;;;2.38;;
23565;SDS011;22140;48.988;8.544;2022-08-01T03:11:29;8.70;;;2.60;;
23565;SDS011;22140;48.988;8.544;2022-08-01T03:16:30;6.43;;;2.60;;
23565;SDS011;22140;48.988;8.544;2022-08-01T03:21:34;6.03;;;2.42;;
23565;SDS011;22140;48.988;8.544;2022-08-01T03:26:36;7.38;;;2.20;;
23565;SDS011;22140;48.988;8.544;2022-08-01T03:31:39;5.87;;;2.23;;
23565;SDS011;22140;48.988;8.544;2022-08-01T03:36:48;6.43;;;2.28;;
23565;SDS011;22140;48.988;8.544;2022-08-01T03:42:01;5.93;;;2.50;;
23565;SDS011;22140;48.988;8.544;2022-08-01T03:47:08;6.63;;;2.60;;
23565;SDS011;22140;48.988;8.544;2022-08-01T03:52:10;6.90;;;2.90;;
23565;SDS011;22140;48.988;8.544;2022-08-01T03:57:14;9.40;;;2.45;;
23565;SDS011;22140;48.988;8.544;2022-08-01T04:02:36;6.70;;;2.65;;
23565;SDS011;22140;48.988;8.544;2022-08-01T04:07:38;6.13;;;2.40;;
23565;SDS011;22140;48.988;8.544;2022-08-01T04:12:44;6.18;;;2.30;;
23565;SDS011;22140;48.988;8.544;2022-08-01T04:17:45;6.85;;;2.78;;
23565;SDS011;22140;48.988;8.544;2022-08-01T04:22:46;6.90;;;2.70;;
23565;SDS011;22140;48.988;8.544;2022-08-01T04:27:49;6.65;;;2.60;;
23565;SDS011;22140;48.988;8.544;2022-08-01T04:32:54;7.65;;;2.80;;
23565;SDS011;22140;48.988;8.544;2022-08-01T04:37:56;7.20;;;2.50;;
23565;SDS011;22140;48.988;8.544;2022-08-01T04:42:58;7.00;;;3.07;;
23565;SDS011;22140;48.988;8.544;2022-08-01T04:47:59;7.78;;;2.70;;
23565;SDS011;22140;48.988;8.544;2022-08-01T04:53:01;7.78;;;2.97;;
23565;SDS011;22140;48.988;8.544;2022-08-01T04:58:04;7.40;;;2.80;;
23565;SDS011;22140;48.988;8.544;2022-08-01T05:03:05;6.90;;;2.63;;
23565;SDS011;22140;48.988;8.544;2022-08-01T05:08:07;7.45;;;2.90;;
23565;SDS011;22140;48.988;8.544;2022-08-01T05:13:08;6.47;;;3.00;;
23565;SDS011;22140;48.988;8.544;2022-08-01T05:18:09;9.02;;;3.08;;
23565;SDS011;22140;48.988;8.544;2022-08-01T05:23:11;7.78;;;2.92;;
23565;SDS011;22140;48.988;8.544;2022-08-01T05:28:28;6.40;;;2.63;;
23565;SDS011;22140;48.988;8.544;2022-08-01T05:33:29;6.73;;;2.67;;
23565;SDS011;22140;48.988;8.544;2022-08-01T05:38:33;9.52;;;2.45;;
23565;SDS011;22140;48.988;8.544;2022-08-01T05:43:34;5.80;;;2.35;;
23565;SDS011;22140;48.988;8.544;2022-08-01T05:48:35;5.60;;;2.20;;
23565;SDS011;22140;48.988;8.544;2022-08-01T05:53:37;7.05;;;2.45;;
23565;SDS011;22140;48.988;8.544;2022-08-01T05:58:38;6.97;;;2.17;;
23565;SDS011;22140;48.988;8.544;2022-08-01T06:03:39;5.70;;;2.07;;
23565;SDS011;22140;48.988;8.544;2022-08-01T06:08:41;5.95;;;2.35;;
23565;SDS011;22140;48.988;8.544;2022-08-01T06:13:44;7.03;;;2.30;;
23565;SDS011;22140;48.988;8.544;2022-08-01T06:18:49;5.80;;;2.23;;
23565;SDS011;22140;48.988;8.544;2022-08-01T06:23:56;7.60;;;2.50;;
23565;SDS011;22140;48.988;8.544;2022-08-01T06:28:57;6.20;;;2.10;;
23565;SDS011;22140;48.988;8.544;2022-08-01T06:33:59;5.60;;;2.30;;
23565;SDS011;22140;48.988;8.544;2022-08-01T06:39:00;6.97;;;2.50;;
23565;SDS011;22140;48.988;8.544;2022-08-01T06:44:01;5.93;;;2.40;;
23565;SDS011;22140;48.988;8.544;2022-08-01T06:49:05;5.90;;;2.50;;
23565;SDS011;22140;48.988;8.544;2022-08-01T06:54:06;6.50;;;2.63;;
23565;SDS011;22140;48.988;8.544;2022-08-01T06:59:08;6.45;;;2.50;;
23565;SDS011;22140;48.988;8.544;2022-08-01T07:04:09;7.38;;;2.50;;
23565;SDS011;22140;48.988;8.544;2022-08-01T07:09:11;8.93;;;3.30;;
23565;SDS011;22140;48.988;8.544;2022-08-01T07:14:14;9.23;;;4.60;;
23565;SDS011;22140;48.988;8.544;2022-08-01T07:19:16;15.07;;;4.80;;
23565;SDS011;22140;48.988;8.544;2022-08-01T07:24:17;10.02;;;4.75;;
23565;SDS011;22140;48.988;8.544;2022-08-01T07:29:22;9.63;;;4.10;;
23565;SDS011;22140;48.988;8.544;2022-08-01T07:34:24;7.57;;;3.72;;
23565;SDS011;22140;48.988;8.544;2022-08-01T07:39:25;7.38;;;2.85;;
23565;SDS011;22140;48.988;8.544;2022-08-01T07:44:26;9.27;;;3.43;;
23565;SDS011;22140;48.988;8.544;2022-08-01T07:49:29;5.82;;;2.40;;
23565;SDS011;22140;48.988;8.544;2022-08-01T07:54:35;6.70;;;2.65;;
23565;SDS011;22140;48.988;8.544;2022-08-01T07:59:36;6.03;;;2.80;;
23565;SDS011;22140;48.988;8.544;2022-08-01T08:04:37;13.70;;;2.87;;
23565;SDS011;22140;48.988;8.544;2022-08-01T08:09:38;6.57;;;2.58;;
23565;SDS011;22140;48.988;8.544;2022-08-01T08:14:40;6.07;;;2.60;;
23565;SDS011;22140;48.988;8.544;2022-08-01T08:19:41;6.80;;;2.53;;
23565;SDS011;22140;48.988;8.544;2022-08-01T08:24:43;7.32;;;2.30;;
23565;SDS011;22140;48.988;8.544;2022-08-01T08:29:47;5.80;;;2.65;;
23565;SDS011;22140;48.988;8.544;2022-08-01T08:34:48;7.83;;;2.83;;
23565;SDS011;22140;48.988;8.544;2022-08-01T08:39:49;6.15;;;2.63;;
23565;SDS011;22140;48.988;8.544;2022-08-01T08:44:51;5.53;;;2.70;;
23565;SDS011;22140;48.988;8.544;2022-08-01T08:49:53;6.43;;;2.37;;
23565;SDS011;22140;48.988;8.544;2022-08-01T08:54:55;5.10;;;2.40;;
23565;SDS011;22140;48.988;8.544;2022-08-01T08:59:56;6.85;;;2.45;;
23565;SDS011;22140;48.988;8.544;2022-08-01T09:04:59;5.10;;;2.10;;
23565;SDS011;22140;48.988;8.544;2022-08-01T09:10:00;6.80;;;2.40;;
23565;SDS011;22140;48.988;8.544;2022-08-01T09:15:01;7.93;;;2.60;;
23565;SDS011;22140;48.988;8.544;2022-08-01T09:20:03;5.95;;;2.10;;
23565;SDS011;22140;48.988;8.544;2022-08-01T09:25:08;5.67;;;2.00;;
23565;SDS011;22140;48.988;8.544;2022-08-01T09:30:14;6.60;;;2.00;;
23565;SDS011;22140;48.988;8.544;2022-08-01T09:35:23;8.27;;;2.20;;
23565;SDS011;22140;48.988;8.544;2022-08-01T09:45:50;5.53;;;2.23;;
23565;SDS011;22140;48.988;8.544;2022-08-01T09:50:53;5.20;;;2.25;;
23565;SDS011;22140;48.988;8.544;2022-08-01T09:55:55;6.35;;;2.25;;
23565;SDS011;22140;48.988;8.544;2022-08-01T10:01:09;6.53;;;2.30;;
23565;SDS011;22140;48.988;8.544;2022-08-01T10:06:18;5.72;;;2.40;;
23565;SDS011;22140;48.988;8.544;2022-08-01T10:11:24;5.55;;;2.30;;
23565;SDS011;22140;48.988;8.544;2022-08-01T10:16:36;5.80;;;2.50;;
23565;SDS011;22140;48.988;8.544;2022-08-01T10:21:38;5.47;;;2.30;;
23565;SDS011;22140;48.988;8.544;2022-08-01T10:27:00;6.38;;;2.60;;
23565;SDS011;22140;48.988;8.544;2022-08-01T10:32:09;6.93;;;2.90;;
23565;SDS011;22140;48.988;8.544;2022-08-01T10:37:10;6.87;;;3.50;;
23565;SDS011;22140;48.988;8.544;2022-08-01T10:42:14;5.75;;;2.80;;
23565;SDS011;22140;48.988;8.544;2022-08-01T10:47:21;5.85;;;2.60;;
23565;SDS011;22140;48.988;8.544;2022-08-01T10:58:23;7.70;;;4.70;;
23565;SDS011;22140;48.988;8.544;2022-08-01T11:03:32;9.02;;;3.80;;
23565;SDS011;22140;48.988;8.544;2022-08-01T11:08:53;5.27;;;1.80;;
23565;SDS011;22140;48.988;8.544;2022-08-01T11:18:59;6.10;;;2.10;;
23565;SDS011;22140;48.988;8.544;2022-08-01T11:24:01;6.53;;;2.73;;
23565;SDS011;22140;48.988;8.544;2022-08-01T11:29:12;7.17;;;2.77;;
23565;SDS011;22140;48.988;8.544;2022-08-01T11:34:35;5.70;;;2.53;;
23565;SDS011;22140;48.988;8.544;2022-08-01T11:39:43;8.88;;;3.35;;
23565;SDS011;22140;48.988;8.544;2022-08-01T11:45:04;8.37;;;4.20;;
23565;SDS011;22140;48.988;8.544;2022-08-01T11:50:07;6.35;;;2.47;;
23565;SDS011;22140;48.988;8.544;2022-08-01T11:55:29;6.35;;;1.90;;
23565;SDS011;22140;48.988;8.544;2022-08-01T12:00:32;6.57;;;2.27;;
23565;SDS011;22140;48.988;8.544;2022-08-01T12:05:34;5.72;;;2.10;;
23565;SDS011;22140;48.988;8.544;2022-08-01T12:10:49;5.10;;;2.00;;
23565;SDS011;22140;48.988;8.544;2022-08-01T12:15:50;6.17;;;2.10;;
23565;SDS011;22140;48.988;8.544;2022-08-01T12:20:59;5.60;;;2.20;;
23565;SDS011;22140;48.988;8.544;2022-08-01T12:26:03;6.43;;;2.30;;
23565;SDS011;22140;48.988;8.544;2022-08-01T12:31:05;8.35;;;2.90;;
23565;SDS011;22140;48.988;8.544;2022-08-01T12:36:06;6.70;;;3.00;;
23565;SDS011;22140;48.988;8.544;2022-08-01T12:41:09;6.20;;;2.20;;
23565;SDS011;22140;48.988;8.544;2022-08-01T12:46:11;5.80;;;2.03;;
23565;SDS011;22140;48.988;8.544;2022-08-01T12:51:17;5.93;;;2.00;;
23565;SDS011;22140;48.988;8.544;2022-08-01T12:56:18;5.78;;;2.42;;
23565;SDS011;22140;48.988;8.544;2022-08-01T13:01:31;6.40;;;2.20;;
23565;SDS011;22140;48.988;8.544;2022-08-01T13:06:33;4.60;;;1.90;;
23565;SDS011;22140;48.988;8.544;2022-08-01T13:11:36;6.60;;;2.00;;
23565;SDS011;22140;48.988;8.544;2022-08-01T13:16:51;5.32;;;2.13;;
23565;SDS011;22140;48.988;8.544;2022-08-01T13:21:57;6.35;;;2.03;;
23565;SDS011;22140;48.988;8.544;2022-08-01T13:27:00;4.90;;;1.90;;
23565;SDS011;22140;48.988;8.544;2022-08-01T13:32:18;5.55;;;1.90;;
23565;SDS011;22140;48.988;8.544;2022-08-01T13:37:30;5.00;;;1.88;;
23565;SDS011;22140;48.988;8.544;2022-08-01T13:42:32;5.03;;;1.90;;
23565;SDS011;22140;48.988;8.544;2022-08-01T13:47:34;5.80;;;1.75;;
23565;SDS011;22140;48.988;8.544;2022-08-01T13:52:35;6.55;;;1.95;;
23565;SDS011;22140;48.988;8.544;2022-08-01T13:57:37;4.20;;;1.57;;
23565;SDS011;22140;48.988;8.544;2022-08-01T14:02:38;5.20;;;1.80;;
23565;SDS011;22140;48.988;8.544;2022-08-01T14:07:40;5.05;;;1.80;;
23565;SDS011;22140;48.988;8.544;2022-08-01T14:12:41;4.50;;;1.70;;
23565;SDS011;22140;48.988;8.544;2022-08-01T14:17:45;5.20;;;1.90;;
23565;SDS011;22140;48.988;8.544;2022-08-01T14:22:48;5.45;;;1.60;;
23565;SDS011;22140;48.988;8.544;2022-08-01T14:27:49;4.35;;;1.60;;
23565;SDS011;22140;48.988;8.544;2022-08-01T14:32:51;5.37;;;1.70;;
23565;SDS011;22140;48.988;8.544;2022-08-01T14:37:52;5.07;;;1.77;;
23565;SDS011;22140;48.988;8.544;2022-08-01T14:42:57;4.80;;;1.70;;
23565;SDS011;22140;48.988;8.544;2022-08-01T14:47:59;4.57;;;1.60;;
23565;SDS011;22140;48.988;8.544;2022-08-01T14:53:00;5.13;;;1.60;;
23565;SDS011;22140;48.988;8.544;2022-08-01T14:58:01;4.43;;;1.60;;
23565;SDS011;22140;48.988;8.544;2022-08-01T15:03:03;6.65;;;1.50;;
23565;SDS011;22140;48.988;8.544;2022-08-01T15:08:05;5.37;;;1.60;;
23565;SDS011;22140;48.988;8.544;2022-08-01T15:13:07;5.18;;;1.58;;
23565;SDS011;22140;48.988;8.544;2022-08-01T15:18:08;7.47;;;1.63;;
23565;SDS011;22140;48.988;8.544;2022-08-01T15:23:10;4.97;;;1.63;;
23565;SDS011;22140;48.988;8.544;2022-08-01T15:28:11;4.22;;;1.63;;
23565;SDS011;22140;48.988;8.544;2022-08-01T15:33:13;6.07;;;1.60;;
23565;SDS011;22140;48.988;8.544;2022-08-01T15:38:14;5.47;;;1.60;;
23565;SDS011;22140;48.988;8.544;2022-08-01T15:43:16;5.10;;;1.70;;
23565;SDS011;22140;48.988;8.544;2022-08-01T15:48:17;5.38;;;1.50;;
23565;SDS011;22140;48.988;8.544;2022-08-01T15:53:18;6.40;;;1.60;;
23565;SDS011;22140;48.988;8.544;2022-08-01T15:58:20;5.40;;;1.33;;
23565;SDS011;22140;48.988;8.544;2022-08-01T16:03:21;4.40;;;1.52;;
23565;SDS011;22140;48.988;8.544;2022-08-01T16:08:22;6.07;;;1.70;;
23565;SDS011;22140;48.988;8.544;2022-08-01T16:13:24;5.27;;;1.60;;
23565;SDS011;22140;48.988;8.544;2022-08-01T16:18:25;4.75;;;1.40;;
23565;SDS011;22140;48.988;8.544;2022-08-01T16:23:26;4.32;;;1.48;;
23565;SDS011;22140;48.988;8.544;2022-08-01T16:28:28;6.10;;;1.60;;
23565;SDS011;22140;48.988;8.544;2022-08-01T16:33:29;5.63;;;1.40;;
23565;SDS011;22140;48.988;8.544;2022-08-01T16:38:51;4.50;;;1.58;;
23565;SDS011;22140;48.988;8.544;2022-08-01T16:43:52;5.38;;;1.42;;
23565;SDS011;22140;48.988;8.544;2022-08-01T16:48:55;4.30;;;1.37;;
23565;SDS011;22140;48.988;8.544;2022-08-01T16:53:57;6.13;;;1.50;;
23565;SDS011;22140;48.988;8.544;2022-08-01T16:58:58;5.18;;;1.40;;
23565;SDS011;22140;48.988;8.544;2022-08-01T17:03:59;4.20;;;1.33;;
23565;SDS011;22140;48.988;8.544;2022-08-01T17:09:02;5.20;;;1.45;;
23565;SDS011;22140;48.988;8.544;2022-08-01T17:14:04;5.18;;;1.70;;
23565;SDS011;22140;48.988;8.544;2022-08-01T17:19:06;4.73;;;1.50;;
23565;SDS011;22140;48.988;8.544;2022-08-01T17:24:07;4.83;;;1.30;;
23565;SDS011;22140;48.988;8.544;2022-08-01T17:29:09;5.43;;;2.17;;
23565;SDS011;22140;48.988;8.544;2022-08-01T17:34:10;4.53;;;1.40;;
23565;SDS011;22140;48.988;8.544;2022-08-01T17:39:11;5.83;;;1.40;;
23565;SDS011;22140;48.988;8.544;2022-08-01T17:44:13;3.88;;;1.23;;
23565;SDS011;22140;48.988;8.544;2022-08-01T17:49:14;4.03;;;1.30;;
23565;SDS011;22140;48.988;8.544;2022-08-01T17:54:33;3.93;;;1.20;;
23565;SDS011;22140;48.988;8.544;2022-08-01T17:59:35;6.18;;;1.23;;
23565;SDS011;22140;48.988;8.544;2022-08-01T18:04:36;4.88;;;1.23;;
23565;SDS011;22140;48.988;8.544;2022-08-01T18:09:44;4.90;;;1.07;;
23565;SDS011;22140;48.988;8.544;2022-08-01T18:14:46;3.90;;;1.20;;
23565;SDS011;22140;48.988;8.544;2022-08-01T18:19:49;4.20;;;1.30;;
23565;SDS011;22140;48.988;8.544;2022-08-01T18:24:50;4.87;;;1.30;;
23565;SDS011;22140;48.988;8.544;2022-08-01T18:29:52;4.10;;;1.20;;
23565;SDS011;22140;48.988;8.544;2022-08-01T18:34:53;5.30;;;1.30;;
23565;SDS011;22140;48.988;8.544;2022-08-01T18:39:55;4.65;;;1.27;;
23565;SDS011;22140;48.988;8.544;2022-08-01T18:44:57;8.93;;;1.70;;
23565;SDS011;22140;48.988;8.544;2022-08-01T18:49:58;4.05;;;1.30;;
23565;SDS011;22140;48.988;8.544;2022-08-01T18:54:59;5.18;;;1.30;;
23565;SDS011;22140;48.988;8.544;2022-08-01T19:00:02;4.53;;;1.57;;
23565;SDS011;22140;48.988;8.544;2022-08-01T19:05:04;4.07;;;1.10;;
23565;SDS011;22140;48.988;8.544;2022-08-01T19:10:05;5.07;;;1.38;;
23565;SDS011;22140;48.988;8.544;2022-08-01T19:15:07;12.53;;;1.87;;
23565;SDS011;22140;48.988;8.544;2022-08-01T19:20:09;4.03;;;1.20;;
23565;SDS011;22140;48.988;8.544;2022-08-01T19:25:12;4.38;;;1.20;;
23565;SDS011;22140;48.988;8.544;2022-08-01T19:30:14;3.75;;;1.23;;
23565;SDS011;22140;48.988;8.544;2022-08-01T19:35:16;4.67;;;1.30;;
23565;SDS011;22140;48.988;8.544;2022-08-01T19:40:17;4.00;;;1.17;;
23565;SDS011;22140;48.988;8.544;2022-08-01T19:45:28;5.57;;;1.30;;
23565;SDS011;22140;48.988;8.544;2022-08-01T19:50:30;4.00;;;1.20;;
23565;SDS011;22140;48.988;8.544;2022-08-01T19:55:32;5.20;;;1.20;;
23565;SDS011;22140;48.988;8.544;2022-08-01T20:00:40;4.85;;;1.30;;
23565;SDS011;22140;48.988;8.544;2022-08-01T20:05:42;6.13;;;1.20;;
23565;SDS011;22140;48.988;8.544;2022-08-01T20:10:44;4.97;;;1.20;;
23565;SDS011;22140;48.988;8.544;2022-08-01T20:15:46;5.50;;;1.48;;
23565;SDS011;22140;48.988;8.544;2022-08-01T20:20:48;4.85;;;1.40;;
23565;SDS011;22140;48.988;8.544;2022-08-01T20:25:50;4.30;;;1.20;;
23565;SDS011;22140;48.988;8.544;2022-08-01T20:30:56;5.57;;;1.27;;
23565;SDS011;22140;48.988;8.544;2022-08-01T20:36:03;5.07;;;1.30;;
23565;SDS011;22140;48.988;8.544;2022-08-01T20:41:12;4.43;;;1.30;;
23565;SDS011;22140;48.988;8.544;2022-08-01T20:46:14;5.40;;;1.30;;
23565;SDS011;22140;48.988;8.544;2022-08-01T20:51:15;4.20;;;1.10;;
23565;SDS011;22140;48.988;8.544;2022-08-01T21:01:28;4.03;;;1.20;;
23565;SDS011;22140;48.988;8.544;2022-08-01T21:06:33;5.65;;;1.17;;
23565;SDS011;22140;48.988;8.544;2022-08-01T21:11:37;4.70;;;1.40;;
23565;SDS011;22140;48.988;8.544;2022-08-01T21:16:40;5.00;;;1.23;;
23565;SDS011;22140;48.988;8.544;2022-08-01T21:21:47;4.50;;;1.30;;
23565;SDS011;22140;48.988;8.544;2022-08-01T21:26:50;4.50;;;1.40;;
23565;SDS011;22140;48.988;8.544;2022-08-01T21:31:51;5.67;;;1.30;;
23565;SDS011;22140;48.988;8.544;2022-08-01T21:37:12;5.00;;;1.30;;
23565;SDS011;22140;48.988;8.544;2022-08-01T21:42:14;4.88;;;1.50;;
23565;SDS011;22140;48.988;8.544;2022-08-01T21:47:19;5.93;;;1.40;;
23565;SDS011;22140;48.988;8.544;2022-08-01T21:52:21;3.63;;;1.10;;
23565;SDS011;22140;48.988;8.544;2022-08-01T22:02:34;3.95;;;1.10;;
23565;SDS011;22140;48.988;8.544;2022-08-01T22:07:47;4.27;;;1.30;;
23565;SDS011;22140;48.988;8.544;2022-08-01T22:12:51;4.35;;;1.20;;
23565;SDS011;22140;48.988;8.544;2022-08-01T22:17:53;3.85;;;1.05;;
23565;SDS011;22140;48.988;8.544;2022-08-01T22:22:54;4.13;;;1.10;;
23565;SDS011;22140;48.988;8.544;2022-08-01T22:27:56;4.70;;;1.15;;
23565;SDS011;22140;48.988;8.544;2022-08-01T22:33:09;4.38;;;1.35;;
23565;SDS011;22140;48.988;8.544;2022-08-01T22:38:18;5.00;;;1.37;;
23565;SDS011;22140;48.988;8.544;2022-08-01T22:43:24;4.17;;;1.10;;
23565;SDS011;22140;48.988;8.544;2022-08-01T22:48:38;4.38;;;1.20;;
23565;SDS011;22140;48.988;8.544;2022-08-01T22:53:45;3.72;;;1.10;;
23565;SDS011;22140;48.988;8.544;2022-08-01T22:58:49;4.63;;;1.10;;
23565;SDS011;22140;48.988;8.544;2022-08-01T23:03:52;6.32;;;1.23;;
23565;SDS011;22140;48.988;8.544;2022-08-01T23:08:55;5.47;;;1.10;;
23565;SDS011;22140;48.988;8.544;2022-08-01T23:13:56;5.30;;;1.10;;
23565;SDS011;22140;48.988;8.544;2022-08-01T23:18:58;5.30;;;1.25;;
23565;SDS011;22140;48.988;8.544;2022-08-01T23:24:00;4.60;;;1.08;;
23565;SDS011;22140;48.988;8.544;2022-08-01T23:29:01;4.50;;;1.23;;
23565;SDS011;22140;48.988;8.544;2022-08-01T23:34:03;4.60;;;1.27;;
23565;SDS011;22140;48.988;8.544;2022-08-01T23:39:04;5.95;;;1.30;;
23565;SDS011;22140;48.988;8.544;2022-08-01T23:44:05;5.93;;;1.40;;
23565;SDS011;22140;48.988;8.544;2022-08-01T23:49:09;9.07;;;1.80;;
23565;SDS011;22140;48.988;8.544;2022-08-01T23:54:11;3.47;;;1.00;;
23565;SDS011;22140;48.988;8.544;2022-08-01T23:59:13;4.53;;;1.10;;
